Time;durP1;ratioP1;P1;durP2;ratioP2;P2;SDS_P1;SDS_P2;PMS_P1;PMS_P2;Temp;Humidity;BMP_temperature;BMP_pressure;BME280_temperature;BME280_humidity;BME280_pressure;Samples;Min_cycle;Max_cycle;Signal;HPM_P1;HPM_P2
2022/05/21 00:00:31;;;;;;;10.13;9.23;;;;;;;10.76;100.00;101933.66;5044566;28;20036;-60
2022/05/21 00:02:57;;;;;;;10.05;9.00;;;;;;;10.76;100.00;101931.97;5042902;28;20040;-60
2022/05/21 00:05:24;;;;;;;10.65;9.27;;;;;;;10.76;100.00;101939.72;5026975;28;20059;-59
2022/05/21 00:07:51;;;;;;;10.15;9.13;;;;;;;10.75;100.00;101927.59;5045336;28;20384;-60
2022/05/21 00:10:18;;;;;;;10.70;9.23;;;;;;;10.78;100.00;101939.81;5045943;28;20036;-60
2022/05/21 00:12:44;;;;;;;9.88;8.65;;;;;;;10.79;100.00;101939.88;5045979;28;20507;-59
2022/05/21 00:15:13;;;;;;;9.98;8.98;;;;;;;10.83;100.00;101940.03;5044729;28;20037;-60
2022/05/21 00:17:38;;;;;;;12.93;8.27;;;;;;;10.80;100.00;101939.09;5045670;28;20041;-59
2022/05/21 00:20:07;;;;;;;9.68;7.85;;;;;;;10.84;100.00;101941.81;5045161;28;20025;-60
2022/05/21 00:22:32;;;;;;;12.10;7.60;;;;;;;10.84;100.00;101936.63;5045262;28;20031;-61
2022/05/21 00:24:58;;;;;;;9.55;7.10;;;;;;;10.81;100.00;101930.47;5044414;28;20276;-60
2022/05/21 00:27:23;;;;;;;7.85;7.10;;;;;;;10.84;100.00;101936.63;5047895;28;20032;-59
2022/05/21 00:29:48;;;;;;;7.82;6.43;;;;;;;10.79;100.00;101939.88;5048995;28;20103;-59
2022/05/21 00:32:14;;;;;;;9.48;7.00;;;;;;;10.84;100.00;101941.81;5049417;28;20453;-60
2022/05/21 00:34:40;;;;;;;8.95;6.05;;;;;;;10.81;100.00;101934.78;5049869;28;20044;-60
2022/05/21 00:37:05;;;;;;;9.88;6.43;;;;;;;10.80;100.00;101935.59;5049606;28;20021;-59
2022/05/21 00:39:31;;;;;;;7.47;5.68;;;;;;;10.81;100.00;101933.06;5050767;28;20021;-60
2022/05/21 00:42:04;;;;;;;8.00;5.60;;;;;;;10.82;100.00;101944.34;5050245;28;20043;-59
2022/05/21 00:44:29;;;;;;;8.48;5.80;;;;;;;10.83;100.00;101940.03;5049658;28;20044;-60
2022/05/21 00:46:54;;;;;;;7.07;5.60;;;;;;;10.80;100.00;101939.09;5049674;28;20041;-60
2022/05/21 00:49:22;;;;;;;8.32;5.20;;;;;;;10.79;100.00;101939.00;5050067;28;20118;-60
2022/05/21 00:52:07;;;;;;;6.25;5.05;;;;;;;10.84;100.00;101947.00;5027634;28;20091;-60
2022/05/21 00:54:41;;;;;;;9.32;5.68;;;;;;;10.85;100.00;101948.78;5046166;28;20492;-60
2022/05/21 00:57:14;;;;;;;6.90;4.50;;;;;;;10.88;100.00;101948.94;5049911;28;20260;-59
2022/05/21 00:59:47;;;;;;;8.98;4.55;;;;;;;10.87;100.00;101947.13;5049377;28;20392;-59
2022/05/21 01:02:15;;;;;;;8.75;4.80;;;;;;;10.89;100.00;101948.09;5049556;28;20025;-59
2022/05/21 01:04:44;;;;;;;7.72;5.03;;;;;;;10.90;100.00;101953.38;5049773;28;20043;-59
2022/05/21 01:07:09;;;;;;;7.30;4.78;;;;;;;10.94;100.00;101944.03;5049210;28;20103;-60
2022/05/21 01:09:38;;;;;;;8.25;4.78;;;;;;;10.96;100.00;101955.38;5049499;28;20597;-60
2022/05/21 01:12:05;;;;;;;8.00;3.92;;;;;;;10.97;100.00;101944.19;5049349;28;20515;-59
2022/05/21 01:14:31;;;;;;;8.60;3.80;;;;;;;11.02;100.00;101945.31;5050725;28;20020;-59
2022/05/21 01:16:56;;;;;;;6.97;3.88;;;;;;;11.08;100.00;101949.00;5048195;28;20040;-60
2022/05/21 01:19:21;;;;;;;6.53;3.60;;;;;;;11.11;100.00;101938.78;5049601;28;20020;-60
2022/05/21 01:21:47;;;;;;;6.22;4.43;;;;;;;11.12;100.00;101943.13;5049649;28;20025;-61
2022/05/21 01:24:13;;;;;;;5.70;3.60;;;;;;;11.10;100.00;101939.59;5049947;28;20052;-59
2022/05/21 01:26:40;;;;;;;7.43;3.42;;;;;;;11.09;100.00;101943.88;5049423;28;20032;-58
2022/05/21 01:29:16;;;;;;;6.13;3.30;;;;;;;11.09;100.00;101940.41;5050281;28;20452;-60
2022/05/21 01:31:47;;;;;;;7.70;4.25;;;;;;;11.12;100.00;101945.72;5049927;28;20025;-60
2022/05/21 01:34:13;;;;;;;6.38;3.15;;;;;;;11.16;100.00;101945.06;5049592;28;20159;-59
2022/05/21 01:36:38;;;;;;;5.22;3.22;;;;;;;11.14;100.00;101944.09;5049755;28;20103;-59
2022/05/21 01:39:03;;;;;;;5.07;3.72;;;;;;;11.09;100.00;101940.41;5049324;28;20036;-59
2022/05/21 01:41:28;;;;;;;7.25;3.28;;;;;;;11.10;100.00;101935.28;5049264;28;20036;-61
2022/05/21 01:46:38;;;;;;;7.75;3.83;;;;;;;11.09;100.00;101933.50;5049981;28;20090;-60
2022/05/21 01:49:03;;;;;;;5.43;3.47;;;;;;;11.09;100.00;101932.63;5049711;28;20033;-59
2022/05/21 01:51:30;;;;;;;5.63;3.83;;;;;;;11.11;100.00;101926.69;5049402;28;20053;-60
2022/05/21 01:53:55;;;;;;;10.85;4.10;;;;;;;11.10;100.00;101930.09;5049674;28;20035;-59
2022/05/21 01:56:21;;;;;;;6.07;4.53;;;;;;;11.09;100.00;101936.09;5049450;28;20474;-59
2022/05/21 01:58:46;;;;;;;8.32;3.92;;;;;;;11.13;100.00;101934.53;5049852;28;20021;-60
2022/05/21 02:01:11;;;;;;;7.18;4.20;;;;;;;11.14;100.00;101937.22;5048997;28;20037;-60
2022/05/21 02:03:37;;;;;;;9.77;4.50;;;;;;;11.11;100.00;101931.88;5048987;28;20052;-59
2022/05/21 02:06:04;;;;;;;10.10;4.32;;;;;;;11.13;100.00;101939.72;5049147;28;20491;-60
2022/05/21 02:08:29;;;;;;;9.85;4.97;;;;;;;11.14;100.00;101947.59;5049076;28;20050;-60
2022/05/21 02:10:55;;;;;;;9.20;5.43;;;;;;;11.17;100.00;101936.47;5049172;28;20039;-59
2022/05/21 02:13:26;;;;;;;8.13;4.70;;;;;;;11.19;100.00;101945.19;5049198;28;20171;-59
2022/05/21 02:15:52;;;;;;;8.35;5.05;;;;;;;11.10;100.00;101940.47;5048874;28;20559;-59
2022/05/21 02:18:18;;;;;;;10.13;5.07;;;;;;;11.08;100.00;101942.09;5030686;28;20076;-60
2022/05/21 02:20:45;;;;;;;8.65;4.65;;;;;;;11.10;100.00;101944.78;5049364;28;20033;-59
2022/05/21 02:23:11;;;;;;;11.43;5.22;;;;;;;11.11;100.00;101946.56;5048473;28;20039;-60
2022/05/21 02:25:36;;;;;;;8.35;4.30;;;;;;;11.13;100.00;101945.81;5045598;28;20025;-59
2022/05/21 02:28:02;;;;;;;10.82;5.18;;;;;;;11.17;100.00;101949.44;5048670;28;20127;-60
2022/05/21 02:30:28;;;;;;;9.10;4.15;;;;;;;11.17;100.00;101942.53;5048701;28;20037;-60
2022/05/21 02:32:53;;;;;;;10.00;4.30;;;;;;;11.21;100.00;101946.16;5048726;28;20409;-58
2022/05/21 02:35:18;;;;;;;10.13;4.03;;;;;;;11.20;100.00;101946.09;5048836;28;20459;-59
2022/05/21 02:40:44;;;;;;;7.93;4.15;;;;;;;11.22;100.00;101940.19;4966589;28;20168;-60
2022/05/21 02:43:09;;;;;;;8.07;4.20;;;;;;;11.23;100.00;101930.66;5030393;28;20144;-59
2022/05/21 02:45:35;;;;;;;9.55;4.63;;;;;;;11.20;100.00;101936.63;5048525;28;20017;-60
2022/05/21 02:48:00;;;;;;;6.40;4.50;;;;;;;11.21;100.00;101935.78;5047459;28;20533;-60
2022/05/21 02:50:32;;;;;;;8.88;4.35;;;;;;;11.19;100.00;101945.19;5048425;28;20021;-60
2022/05/21 02:52:59;;;;;;;10.35;4.93;;;;;;;11.22;100.00;101945.38;5046111;28;20416;-60
2022/05/21 02:55:24;;;;;;;9.13;4.97;;;;;;;11.23;100.00;101946.22;5048359;28;20052;-60
2022/05/21 02:57:50;;;;;;;10.07;4.85;;;;;;;11.15;100.00;101938.09;5048863;28;20468;-60
2022/05/21 03:00:19;;;;;;;11.15;5.22;;;;;;;11.16;100.00;101945.06;5048340;28;20104;-60
2022/05/21 03:02:45;;;;;;;9.98;5.32;;;;;;;11.19;100.00;101942.59;5047947;28;20401;-59
2022/05/21 03:05:11;;;;;;;13.32;5.20;;;;;;;11.19;100.00;101940.00;5048319;28;20554;-59
2022/05/21 03:07:40;;;;;;;8.50;4.60;;;;;;;11.20;100.00;101947.00;5047870;28;20040;-60
2022/05/21 03:10:22;;;;;;;11.40;4.68;;;;;;;11.24;100.00;101953.22;5047487;28;20044;-60
2022/05/21 03:12:48;;;;;;;9.25;5.47;;;;;;;11.25;100.00;101940.31;5047288;28;20033;-59
2022/05/21 03:15:14;;;;;;;8.50;4.72;;;;;;;11.23;100.00;101946.22;5029796;28;20492;-59
2022/05/21 03:17:39;;;;;;;10.18;5.30;;;;;;;11.19;100.00;101949.53;5047610;28;20412;-59
2022/05/21 03:20:06;;;;;;;10.32;5.35;;;;;;;11.18;100.00;101940.84;5047156;28;20083;-59
2022/05/21 03:22:32;;;;;;;8.45;5.45;;;;;;;11.18;100.00;101935.66;5047703;28;20012;-60
2022/05/21 03:24:57;;;;;;;10.45;5.32;;;;;;;11.16;100.00;101945.06;5045272;28;20029;-59
2022/05/21 03:27:22;;;;;;;10.70;5.30;;;;;;;11.16;100.00;101934.69;5046994;28;20101;-59
2022/05/21 03:29:48;;;;;;;10.77;5.60;;;;;;;11.19;100.00;101931.34;5047617;28;20020;-59
2022/05/21 03:32:13;;;;;;;10.75;5.22;;;;;;;11.17;100.00;101928.69;5047997;28;20063;-59
2022/05/21 03:34:38;;;;;;;10.82;5.90;;;;;;;11.20;100.00;101941.81;5045792;28;20033;-60
2022/05/21 03:37:04;;;;;;;12.10;6.00;;;;;;;11.14;100.00;101946.69;5043432;28;20079;-59
2022/05/21 03:39:30;;;;;;;9.60;6.07;;;;;;;11.15;100.00;101943.28;5045934;28;20012;-59
2022/05/21 03:41:55;;;;;;;10.27;5.82;;;;;;;11.19;100.00;101947.78;5045662;28;20480;-60
2022/05/21 03:44:20;;;;;;;11.70;6.10;;;;;;;11.19;100.00;101950.38;5046209;28;20017;-58
2022/05/21 03:46:46;;;;;;;11.52;5.30;;;;;;;11.22;100.00;101950.56;5044812;28;20025;-60
2022/05/21 03:49:11;;;;;;;11.40;6.00;;;;;;;11.23;100.00;101933.25;5045384;28;20047;-60
2022/05/21 03:51:39;;;;;;;14.35;6.85;;;;;;;11.24;100.00;101954.09;5027639;28;20025;-61
2022/05/21 03:54:05;;;;;;;12.50;6.63;;;;;;;11.26;100.00;101955.06;5047064;28;20112;-60
2022/05/21 03:56:30;;;;;;;11.57;6.22;;;;;;;11.24;100.00;101953.22;5046946;28;20446;-60
2022/05/21 03:58:55;;;;;;;11.13;5.45;;;;;;;11.24;100.00;101956.69;5047701;28;20028;-60
2022/05/21 04:01:21;;;;;;;11.77;5.57;;;;;;;11.27;100.00;101953.34;5046988;28;20476;-60
2022/05/21 04:03:46;;;;;;;10.70;4.93;;;;;;;11.28;100.00;101944.75;5047425;28;20443;-60
2022/05/21 04:06:12;;;;;;;11.10;5.75;;;;;;;11.26;100.00;101951.59;5047274;28;20029;-60
2022/05/21 04:08:37;;;;;;;11.68;6.28;;;;;;;11.23;100.00;101960.09;5047387;28;20025;-61
2022/05/21 04:11:03;;;;;;;12.35;6.13;;;;;;;11.26;100.00;101964.56;5046803;28;20083;-60
2022/05/21 04:13:29;;;;;;;14.88;5.72;;;;;;;11.23;100.00;101962.69;5047771;28;20027;-59
2022/05/21 04:15:54;;;;;;;11.55;5.38;;;;;;;11.22;100.00;101968.72;5047002;28;20056;-59
2022/05/21 04:18:19;;;;;;;10.68;5.20;;;;;;;11.18;100.00;101969.38;5046998;28;20048;-59
2022/05/21 04:20:46;;;;;;;12.70;5.95;;;;;;;11.20;100.00;101969.44;5047195;28;20021;-60
2022/05/21 04:23:11;;;;;;;20.63;6.65;;;;;;;11.22;100.00;101970.41;5047117;28;20437;-60
2022/05/21 04:25:37;;;;;;;11.80;5.80;;;;;;;11.23;100.00;101972.19;5047073;28;20168;-60
2022/05/21 04:28:03;;;;;;;15.75;6.50;;;;;;;11.25;100.00;101973.16;5046318;28;20024;-59
2022/05/21 04:30:30;;;;;;;10.55;5.72;;;;;;;11.22;100.00;101976.50;5046120;28;20480;-60
2022/05/21 04:32:57;;;;;;;14.55;6.03;;;;;;;11.22;100.00;101986.88;5046650;28;20036;-59
2022/05/21 04:35:24;;;;;;;11.88;6.07;;;;;;;11.21;100.00;101979.88;5046082;28;20469;-59
2022/05/21 04:37:49;;;;;;;12.85;6.68;;;;;;;11.22;100.00;101989.47;5046571;28;20074;-59
2022/05/21 04:40:21;;;;;;;11.60;6.05;;;;;;;11.24;100.00;101984.34;5046774;28;20029;-59
2022/05/21 04:42:46;;;;;;;11.43;7.00;;;;;;;11.26;100.00;101988.78;5046508;28;20032;-60
2022/05/21 04:45:13;;;;;;;14.57;7.03;;;;;;;11.18;100.00;101984.94;5045623;28;20020;-60
2022/05/21 04:47:38;;;;;;;16.23;7.55;;;;;;;11.21;100.00;101991.97;5046186;28;20024;-60
2022/05/21 04:50:07;;;;;;;14.73;8.38;;;;;;;11.21;100.00;101992.88;5046071;28;20078;-60
2022/05/21 04:52:32;;;;;;;16.00;8.80;;;;;;;11.19;100.00;101989.31;5046065;28;20184;-59
2022/05/21 04:54:57;;;;;;;17.08;8.40;;;;;;;11.23;100.00;101993.84;5045841;28;20017;-60
2022/05/21 04:57:22;;;;;;;15.07;8.98;;;;;;;11.28;100.00;101987.16;5045137;28;20025;-59
2022/05/21 04:59:48;;;;;;;15.23;8.88;;;;;;;11.30;100.00;101995.00;5045307;28;20021;-60
2022/05/21 05:02:13;;;;;;;18.02;10.10;;;;;;;11.31;100.00;101995.91;5045818;28;20012;-60
2022/05/21 05:04:38;;;;;;;17.52;9.98;;;;;;;11.34;100.00;101993.44;5046420;28;20522;-60
2022/05/21 05:07:08;;;;;;;16.55;10.10;;;;;;;11.30;100.00;101995.00;5041826;28;20457;-60
2022/05/21 05:09:41;;;;;;;18.00;10.93;;;;;;;11.28;100.00;102007.00;5046349;28;20147;-60
2022/05/21 05:12:07;;;;;;;15.68;10.77;;;;;;;11.28;100.00;101997.53;5040577;28;20032;-60
2022/05/21 05:14:32;;;;;;;22.98;11.73;;;;;;;11.34;100.00;102002.13;5049846;28;20094;-60
2022/05/21 05:16:57;;;;;;;21.55;11.68;;;;;;;11.40;100.00;102001.53;5049203;28;20024;-60
2022/05/21 05:19:23;;;;;;;21.75;11.32;;;;;;;11.41;100.00;102005.91;5048956;28;20013;-59
2022/05/21 05:21:48;;;;;;;18.98;10.93;;;;;;;11.46;100.00;102014.78;5049611;28;20075;-60
2022/05/21 05:24:13;;;;;;;14.60;10.02;;;;;;;11.53;100.00;102018.59;5049051;28;20044;-60
2022/05/21 05:26:38;;;;;;;21.95;12.48;;;;;;;11.58;100.00;102013.59;5049035;28;20083;-59
2022/05/21 05:29:05;;;;;;;24.67;12.88;;;;;;;11.61;100.00;102021.53;5049345;28;20032;-60
2022/05/21 05:31:31;;;;;;;15.50;10.63;;;;;;;11.67;100.00;102015.72;5049230;28;20041;-60
2022/05/21 05:33:57;;;;;;;18.17;11.77;;;;;;;11.66;100.00;102025.22;5049155;28;20058;-59
2022/05/21 05:36:22;;;;;;;21.45;12.38;;;;;;;11.68;100.00;102028.78;5049379;28;20032;-60
2022/05/21 05:38:47;;;;;;;21.48;12.00;;;;;;;11.76;100.00;102026.53;5048875;28;20013;-60
2022/05/21 05:41:13;;;;;;;20.30;12.77;;;;;;;11.84;100.00;102029.47;5048445;28;20032;-60
2022/05/21 05:43:38;;;;;;;19.48;12.82;;;;;;;11.88;100.00;102026.22;5045979;28;20027;-60
2022/05/21 05:46:03;;;;;;;21.33;13.85;;;;;;;11.94;100.00;102026.50;5049327;28;20221;-60
2022/05/21 05:48:29;;;;;;;22.10;13.25;;;;;;;11.96;100.00;102021.38;5049041;28;20025;-59
2022/05/21 05:50:56;;;;;;;24.27;12.27;;;;;;;12.03;100.00;102030.31;5048629;28;20392;-60
2022/05/21 05:53:22;;;;;;;23.08;11.60;;;;;;;12.09;100.00;102025.38;5048549;28;20460;-60
2022/05/21 05:55:48;;;;;;;22.30;12.45;;;;;;;12.12;100.00;102030.78;5048758;28;20070;-59
2022/05/21 06:00:57;;;;;;;20.27;11.95;;;;;;;12.12;100.00;102030.78;5048787;28;20043;-60
2022/05/21 06:03:22;;;;;;;17.92;12.77;;;;;;;12.08;100.00;102027.13;5048469;28;20525;-60
2022/05/21 06:05:52;;;;;;;18.00;12.32;;;;;;;12.10;100.00;102028.13;5048732;28;20273;-60
2022/05/21 06:08:18;;;;;;;22.65;12.35;;;;;;;12.05;100.00;102041.69;5048962;28;20029;-59
2022/05/21 06:10:45;;;;;;;20.13;13.23;;;;;;;12.03;100.00;102035.53;5048793;28;20035;-60
2022/05/21 06:13:11;;;;;;;18.70;13.55;;;;;;;12.06;100.00;102033.06;5048253;28;20078;-60
2022/05/21 06:15:38;;;;;;;22.48;14.10;;;;;;;12.05;100.00;102034.78;5048542;28;20032;-60
2022/05/21 06:18:08;;;;;;;19.95;14.82;;;;;;;12.08;100.00;102036.63;5047498;28;20133;-59
2022/05/21 06:20:34;;;;;;;19.97;14.40;;;;;;;12.12;100.00;102041.16;5048218;28;20392;-60
2022/05/21 06:23:00;;;;;;;23.20;14.77;;;;;;;12.20;100.00;102045.00;5048111;28;20056;-59
2022/05/21 06:25:26;;;;;;;22.40;14.23;;;;;;;12.32;100.00;102046.38;5047795;28;20099;-60
2022/05/21 06:27:52;;;;;;;19.42;13.77;;;;;;;12.40;100.00;102047.59;5016825;28;20080;-59
2022/05/21 06:30:20;;;;;;;18.83;14.02;;;;;;;12.44;100.00;102049.50;5047551;28;20021;-59
2022/05/21 06:32:46;;;;;;;24.70;14.98;;;;;;;12.47;100.00;102049.63;5046618;28;20099;-60
2022/05/21 06:35:13;;;;;;;20.15;13.27;;;;;;;12.56;100.00;102050.84;5048055;28;20029;-60
2022/05/21 06:37:39;;;;;;;18.63;12.88;;;;;;;12.61;100.00;102054.53;5047484;28;20123;-60
2022/05/21 06:40:06;;;;;;;26.77;14.15;;;;;;;12.68;100.00;102059.16;5046808;28;20028;-59
2022/05/21 06:42:31;;;;;;;18.65;11.82;;;;;;;12.78;100.00;102064.75;5027730;28;20061;-60
2022/05/21 06:44:57;;;;;;;18.45;12.20;;;;;;;12.81;100.00;102054.47;5046843;28;20523;-60
2022/05/21 06:47:22;;;;;;;18.70;12.80;;;;;;;12.87;100.00;102059.97;5046789;28;20447;-60
2022/05/21 06:49:48;;;;;;;17.30;12.00;;;;;;;12.96;100.00;102055.16;5046843;28;20059;-61
2022/05/21 06:52:13;;;;;;;17.08;11.70;;;;;;;13.06;100.00;102061.59;5044972;28;20025;-60
2022/05/21 06:54:38;;;;;;;20.17;13.02;;;;;;;13.17;100.00;102068.97;5046272;28;20021;-59
2022/05/21 06:57:13;;;;;;;25.08;13.40;;;;;;;13.19;100.00;102060.41;5046445;28;20373;-60
2022/05/21 06:59:38;;;;;;;19.77;12.73;;;;;;;13.24;100.00;102059.72;5046929;28;20477;-59
2022/05/21 07:02:04;;;;;;;16.95;12.73;;;;;;;13.25;100.00;102064.97;5047376;28;20025;-59
2022/05/21 07:09:57;;;;;;;20.73;12.00;;;;;;;13.40;99.19;102071.63;5047884;28;20082;-59
2022/05/21 07:12:23;;;;;;;19.55;11.93;;;;;;;13.45;99.56;102070.09;5047458;28;20480;-59
2022/05/21 07:14:48;;;;;;;24.60;12.30;;;;;;;13.48;100.00;102079.72;5046986;28;20227;-60
2022/05/21 07:17:14;;;;;;;22.65;12.18;;;;;;;13.50;99.88;102078.97;5046797;28;20114;-60
2022/05/21 07:19:39;;;;;;;20.42;11.82;;;;;;;13.49;98.63;102082.38;5046267;28;20520;-59
2022/05/21 07:22:05;;;;;;;21.33;12.80;;;;;;;13.52;98.58;102087.78;5047525;28;20067;-60
2022/05/21 07:24:30;;;;;;;19.45;11.70;;;;;;;13.55;98.91;102092.19;5046965;28;20090;-60
2022/05/21 07:26:55;;;;;;;24.02;12.68;;;;;;;13.65;96.94;102093.47;5046832;28;20029;-60
2022/05/21 07:29:21;;;;;;;22.35;11.98;;;;;;;13.73;96.66;102096.34;5046102;28;20512;-60
2022/05/21 07:31:46;;;;;;;21.30;13.45;;;;;;;13.81;98.62;102094.94;5047256;28;20021;-60
2022/05/21 07:34:12;;;;;;;22.23;12.65;;;;;;;13.87;97.34;102100.38;5046486;28;20033;-60
2022/05/21 07:36:37;;;;;;;17.60;11.60;;;;;;;13.96;96.17;102104.19;5046265;28;20465;-61
2022/05/21 07:39:02;;;;;;;20.20;11.63;;;;;;;14.11;94.90;102098.66;5046385;28;20035;-60
2022/05/21 07:41:28;;;;;;;19.45;12.70;;;;;;;14.28;93.42;102096.69;5047142;28;20442;-60
2022/05/21 07:43:53;;;;;;;18.85;11.10;;;;;;;14.44;92.35;102099.84;5046444;28;20032;-60
2022/05/21 07:46:18;;;;;;;23.38;12.15;;;;;;;14.54;92.01;102094.13;5046728;28;20040;-60
2022/05/21 07:48:43;;;;;;;22.50;12.15;;;;;;;14.77;92.62;102097.53;5046551;28;20025;-60
2022/05/21 07:51:09;;;;;;;18.42;11.95;;;;;;;15.02;92.25;102094.88;5046961;28;20037;-59
2022/05/21 07:53:37;;;;;;;15.93;11.10;;;;;;;15.24;90.99;102101.72;5046900;28;20028;-61
2022/05/21 07:56:03;;;;;;;19.38;11.18;;;;;;;15.46;89.75;102104.13;5046916;28;20112;-61
2022/05/21 07:58:31;;;;;;;15.43;10.23;;;;;;;15.77;86.29;102102.50;5046809;28;20096;-60
2022/05/21 08:00:56;;;;;;;19.23;10.57;;;;;;;16.11;85.65;102104.34;5047117;28;20051;-60
2022/05/21 08:03:22;;;;;;;18.73;11.13;;;;;;;16.31;82.87;102094.47;5045443;28;20020;-60
2022/05/21 08:05:48;;;;;;;20.00;10.30;;;;;;;16.35;81.80;102105.91;5046680;28;20028;-61
2022/05/21 08:08:13;;;;;;;11.45;8.50;;;;;;;16.15;80.85;102106.22;5047021;28;20450;-61
2022/05/21 08:10:41;;;;;;;16.92;10.95;;;;;;;15.97;81.96;102104.81;5046753;28;20045;-61
2022/05/21 08:13:07;;;;;;;18.02;10.15;;;;;;;15.92;83.00;102115.13;5047381;28;20063;-61
2022/05/21 08:15:34;;;;;;;16.73;10.63;;;;;;;15.93;82.59;102121.25;5046031;28;20045;-60
2022/05/21 08:18:00;;;;;;;15.88;9.27;;;;;;;15.80;83.48;102127.81;5046131;28;20127;-61
2022/05/21 08:20:26;;;;;;;18.73;8.60;;;;;;;15.73;83.05;102131.97;5047281;28;20436;-61
2022/05/21 08:28:19;;;;;;;13.98;7.53;;;;;;;15.59;83.46;102119.38;5046906;28;20040;-60
2022/05/21 08:30:46;;;;;;;14.50;8.00;;;;;;;15.57;83.66;102120.16;5046049;28;20457;-60
2022/05/21 08:33:12;;;;;;;13.77;8.35;;;;;;;15.59;82.58;102127.22;5046011;28;20033;-61
2022/05/21 08:35:38;;;;;;;17.92;8.75;;;;;;;15.51;82.07;102118.22;5045947;28;20362;-61
2022/05/21 08:38:05;;;;;;;16.75;9.13;;;;;;;15.59;82.76;102128.94;5045958;28;20032;-60
2022/05/21 08:40:44;;;;;;;14.18;9.30;;;;;;;15.72;86.11;102127.59;5046483;28;20029;-61
2022/05/21 08:43:36;;;;;;;14.77;9.70;;;;;;;15.82;82.95;102127.03;5043169;28;20025;-60
2022/05/21 08:46:11;;;;;;;16.02;8.57;;;;;;;15.88;81.40;102133.28;5045360;28;20170;-60
2022/05/21 08:48:45;;;;;;;16.17;8.20;;;;;;;15.94;81.13;102138.69;5049573;28;20116;-60
2022/05/21 08:51:18;;;;;;;11.93;8.05;;;;;;;15.89;80.48;102135.03;5050758;28;20043;-61
2022/05/21 08:53:49;;;;;;;18.00;9.30;;;;;;;15.68;80.99;102131.84;5050269;28;20104;-61
2022/05/21 08:56:15;;;;;;;12.80;7.45;;;;;;;15.79;82.12;102126.06;5050978;28;20500;-61
2022/05/21 08:58:50;;;;;;;10.02;6.60;;;;;;;16.12;80.88;102127.06;5050264;28;20025;-61
2022/05/21 09:01:19;;;;;;;14.75;7.28;;;;;;;16.36;78.00;102113.81;5049874;28;20025;-61
2022/05/21 09:03:45;;;;;;;16.23;6.97;;;;;;;16.55;79.63;102120.41;5050272;28;20029;-61
2022/05/21 09:06:16;;;;;;;14.73;8.13;;;;;;;16.85;77.24;102115.09;5050470;28;20530;-61
2022/05/21 09:08:55;;;;;;;18.33;10.68;;;;;;;17.17;77.00;102112.44;5050239;28;20033;-61
2022/05/21 09:11:46;;;;;;;18.77;10.38;;;;;;;17.51;74.71;102113.25;5050298;28;20032;-61
2022/05/21 09:14:14;;;;;;;19.00;9.85;;;;;;;17.76;73.12;102113.81;5050202;28;20071;-61
2022/05/21 09:16:54;;;;;;;16.10;8.10;;;;;;;18.05;70.62;102103.91;5049798;28;20476;-61
2022/05/21 09:19:21;;;;;;;14.98;8.10;;;;;;;18.22;69.89;102102.53;5045039;28;20064;-61
2022/05/21 09:21:55;;;;;;;14.52;7.90;;;;;;;18.39;67.92;102098.47;5050263;28;20119;-61
2022/05/21 09:24:53;;;;;;;14.25;6.38;;;;;;;18.45;68.29;102104.75;5050351;28;20029;-60
2022/05/21 09:27:33;;;;;;;12.43;7.25;;;;;;;18.65;68.92;102100.72;5049900;28;20032;-61
2022/05/21 09:30:30;;;;;;;11.63;6.50;;;;;;;18.47;65.66;102095.16;5044371;28;20101;-61
2022/05/21 09:32:58;;;;;;;14.38;6.55;;;;;;;18.68;67.93;102093.78;5014034;28;20075;-62
2022/05/21 09:35:31;;;;;;;13.27;6.07;;;;;;;18.43;64.77;102101.22;5049290;28;20040;-61
2022/05/21 09:38:11;;;;;;;12.52;6.25;;;;;;;18.16;66.23;102096.28;5048913;28;20025;-60
2022/05/21 09:40:38;;;;;;;12.55;6.97;;;;;;;17.86;67.44;102099.16;5047313;28;20048;-61
2022/05/21 09:46:22;;;;;;;13.55;6.97;;;;;;;17.22;71.66;102112.53;5048209;28;20106;-61
2022/05/21 09:48:50;;;;;;;14.25;6.47;;;;;;;17.05;73.27;102119.09;5048213;28;20024;-60
2022/05/21 09:51:29;;;;;;;15.93;6.65;;;;;;;16.93;72.38;102114.44;5048441;28;20052;-61
2022/05/21 09:53:55;;;;;;;10.50;6.60;;;;;;;16.97;74.23;102109.28;5045565;28;20369;-61
2022/05/21 09:56:24;;;;;;;11.73;6.13;;;;;;;17.13;73.92;102101.00;5048157;28;20074;-61
2022/05/21 09:58:52;;;;;;;13.80;6.07;;;;;;;17.12;72.03;102103.59;5045024;28;20065;-61
2022/05/21 10:01:36;;;;;;;9.48;5.25;;;;;;;17.09;72.26;102119.19;5048101;28;20500;-61
2022/05/21 10:04:11;;;;;;;11.27;5.70;;;;;;;17.00;72.26;102127.72;5047225;28;20032;-61
2022/05/21 10:06:46;;;;;;;14.02;5.82;;;;;;;16.89;72.74;102127.44;5047663;28;20044;-60
2022/05/21 10:12:33;;;;;;;11.05;5.47;;;;;;;16.62;72.72;102123.22;5047948;28;20389;-61
2022/05/21 10:15:08;;;;;;;13.63;5.65;;;;;;;16.66;72.97;102125.94;5047240;28;20104;-62
2022/05/21 10:17:38;;;;;;;16.70;5.93;;;;;;;16.82;74.12;102115.88;5047571;28;20041;-60
2022/05/21 10:20:34;;;;;;;8.77;4.70;;;;;;;16.99;72.49;102113.72;5047742;28;20025;-61
2022/05/21 10:23:11;;;;;;;12.50;5.90;;;;;;;17.08;72.40;102114.78;5046643;28;20127;-61
2022/05/21 10:25:48;;;;;;;12.77;6.15;;;;;;;17.04;71.29;102109.47;5047801;28;20527;-61
2022/05/21 10:28:35;;;;;;;11.32;5.80;;;;;;;17.01;72.90;102121.59;5047600;28;20025;-61
2022/05/21 10:31:39;;;;;;;12.35;6.75;;;;;;;17.02;73.69;102119.03;5046714;28;20502;-60
2022/05/21 10:34:37;;;;;;;12.60;6.72;;;;;;;17.02;72.10;102119.03;4979952;28;20037;-61
2022/05/21 10:37:33;;;;;;;11.70;6.35;;;;;;;17.01;72.04;102126.84;5039839;28;20083;-61
2022/05/21 10:40:16;;;;;;;15.07;7.80;;;;;;;16.89;72.14;102127.44;5045561;28;20033;-61
2022/05/21 10:43:06;;;;;;;13.82;9.75;;;;;;;16.86;73.48;102122.97;5045927;28;20025;-61
2022/05/21 10:45:46;;;;;;;13.53;8.60;;;;;;;16.79;75.01;102126.28;5045211;28;20377;-60
2022/05/21 10:48:38;;;;;;;13.45;9.20;;;;;;;16.89;75.82;102138.75;5047682;28;20469;-60
2022/05/21 10:51:15;;;;;;;12.55;8.45;;;;;;;17.03;75.23;102135.63;5038336;28;20025;-60
2022/05/21 10:53:54;;;;;;;14.63;9.55;;;;;;;17.24;74.54;102130.06;5035909;28;20053;-60
2022/05/21 10:56:28;;;;;;;13.02;5.72;;;;;;;17.39;69.46;102123.44;5044479;28;20029;-60
2022/05/21 10:59:25;;;;;;;12.15;5.45;;;;;;;17.63;70.20;102119.59;5044184;28;20496;-60
2022/05/21 11:02:08;;;;;;;21.60;9.65;;;;;;;17.63;70.50;102125.75;5050468;28;20075;-60
2022/05/21 11:04:50;;;;;;;19.13;9.13;;;;;;;17.61;72.06;102131.81;5043483;28;20090;-60
2022/05/21 11:07:28;;;;;;;13.63;7.47;;;;;;;17.48;71.96;102131.53;5048832;28;20453;-60
2022/05/21 11:09:59;;;;;;;26.83;9.80;;;;;;;17.39;71.09;102128.69;5047271;28;20436;-61
2022/05/21 11:12:36;;;;;;;12.40;4.65;;;;;;;17.52;71.08;102129.88;5046344;28;20079;-61
2022/05/21 11:15:08;;;;;;;9.60;4.03;;;;;;;17.83;71.50;102125.31;5040879;28;20021;-60
2022/05/21 11:17:40;;;;;;;11.75;4.60;;;;;;;18.00;69.67;102130.94;5046000;28;20539;-59
2022/05/21 11:20:15;;;;;;;7.72;3.72;;;;;;;18.06;68.51;102143.28;5046899;28;20068;-59
2022/05/21 11:22:49;;;;;;;11.13;4.25;;;;;;;18.10;69.77;102134.63;5044762;28;20036;-59
2022/05/21 11:25:22;;;;;;;11.20;4.45;;;;;;;18.13;69.08;102139.06;5045721;28;20036;-60
2022/05/21 11:27:59;;;;;;;10.00;4.05;;;;;;;18.15;69.44;102142.59;5048835;28;20033;-62
2022/05/21 11:30:25;;;;;;;10.18;4.50;;;;;;;18.04;68.27;102133.63;5049118;28;20033;-61
2022/05/21 12:20:48;;;;;;;7.75;3.15;;;;;;;19.58;62.62;102106.63;4965852;28;20445;-68
2022/05/21 12:23:35;;;;;;;9.00;2.92;;;;;;;19.73;62.35;102116.50;4965615;28;20065;-68
2022/05/21 12:26:04;;;;;;;10.05;3.50;;;;;;;19.61;58.97;102111.94;4959194;28;20047;-68
2022/05/21 12:29:04;;;;;;;10.55;3.28;;;;;;;19.53;58.42;102113.56;4961494;28;20419;-68
2022/05/21 12:31:38;;;;;;;6.53;2.67;;;;;;;19.36;58.81;102101.06;4976488;28;20047;-67
2022/05/21 12:34:12;;;;;;;6.28;2.53;;;;;;;19.31;58.79;102093.13;4979872;28;20030;-67